Time,TemperatureF,DewpointF,PressureIn,WindDirection,WindDirectionDegrees,WindSpeedMPH,WindSpeedGustMPH,Humidity,HourlyPrecipIn,Conditions,Clouds,dailyrainin,SoftwareType,DateUTC
2013-01-16 00:01:00,25.1,13.2,29.29,NNE,31,0.0,0.0,60,0.00,,---,0.00,VWS V14.00,2013-01-16 06:01:00,
2013-01-16 00:04:00,25.1,13.2,29.29,NNE,31,0.0,0.0,60,0.00,,---,0.00,VWS V14.00,2013-01-16 06:04:00,
2013-01-16 00:10:00,25.1,13.2,29.29,WSW,239,0.0,2.7,60,0.00,,---,0.00,VWS V14.00,2013-01-16 06:10:00,
2013-01-16 00:16:00,25.1,13.2,29.29,WSW,239,0.0,2.7,60,0.00,,---,0.00,VWS V14.00,2013-01-16 06:16:00,
2013-01-16 00:19:00,25.1,13.2,29.29,WSW,239,0.0,2.7,60,0.00,,---,0.00,VWS V14.00,2013-01-16 06:19:00,
2013-01-16 00:22:00,25.1,13.2,29.29,WSW,239,0.0,0.0,60,0.00,,---,0.00,VWS V14.00,2013-01-16 06:22:00,
2013-01-16 00:25:00,25.1,13.2,29.26,North,1,0.0,0.0,60,0.00,,---,0.00,VWS V14.00,2013-01-16 06:25:00,
2013-01-16 00:28:00,25.5,14.3,29.26,West,278,0.0,0.0,62,0.00,,---,0.00,VWS V14.00,2013-01-16 06:28:00,
2013-01-16 00:31:00,25.5,14.3,29.26,West,278,0.0,0.0,62,0.00,,---,0.00,VWS V14.00,2013-01-16 06:31:00,
2013-01-16 00:34:00,25.5,14.3,29.26,NE,35,0.0,0.0,62,0.00,,---,0.00,VWS V14.00,2013-01-16 06:34:00,
2013-01-16 00:40:00,25.7,14.5,29.26,NE,35,0.0,0.0,62,0.00,,---,0.00,VWS V14.00,2013-01-16 06:40:00,
2013-01-16 00:46:00,25.7,14.5,29.26,NE,35,0.0,0.0,62,0.00,,---,0.00,VWS V14.00,2013-01-16 06:46:00,
2013-01-16 00:49:00,25.7,14.5,29.26,NE,35,0.0,0.0,62,0.00,,---,0.00,VWS V14.00,2013-01-16 06:49:00,
2013-01-16 00:52:00,25.7,14.5,29.26,NE,35,0.0,0.0,62,0.00,,---,0.00,VWS V14.00,2013-01-16 06:52:00,
2013-01-16 00:58:00,25.7,14.5,29.29,NE,35,0.0,0.0,62,0.00,,---,0.00,VWS V14.00,2013-01-16 06:58:00,
2013-01-16 01:01:00,25.7,14.5,29.29,NNE,28,0.0,0.0,62,0.00,,---,0.00,VWS V14.00,2013-01-16 07:01:00,
2013-01-16 01:04:00,25.7,14.5,29.29,NNE,28,0.0,0.0,62,0.00,,---,0.00,VWS V14.00,2013-01-16 07:04:00,
2013-01-16 01:07:00,25.7,14.5,29.29,NNE,28,0.0,0.0,62,0.00,,---,0.00,VWS V14.00,2013-01-16 07:07:00,
2013-01-16 01:10:00,25.7,14.5,29.29,NNE,28,0.0,0.0,62,0.00,,---,0.00,VWS V14.00,2013-01-16 07:10:00,
2013-01-16 01:13:00,25.7,14.5,29.29,NNE,28,0.0,0.0,62,0.00,,---,0.00,VWS V14.00,2013-01-16 07:13:00,
2013-01-16 01:16:00,25.7,14.5,29.29,NNE,28,0.0,0.0,62,0.00,,---,0.00,VWS V14.00,2013-01-16 07:16:00,
2013-01-16 01:19:00,24.1,13.3,29.29,NNE,28,0.0,0.0,63,0.00,,---,0.00,VWS V14.00,2013-01-16 07:19:00,
2013-01-16 01:25:00,24.1,13.3,29.29,NNE,28,0.0,0.0,63,0.00,,---,0.00,VWS V14.00,2013-01-16 07:25:00,
2013-01-16 01:28:00,24.1,13.3,29.29,NNE,28,0.0,0.0,63,0.00,,---,0.00,VWS V14.00,2013-01-16 07:28:00,
2013-01-16 01:31:00,24.4,14.4,29.29,NNE,28,0.0,0.0,65,0.00,,---,0.00,VWS V14.00,2013-01-16 07:31:00,
2013-01-16 01:34:00,24.4,14.4,29.29,NNE,28,0.0,0.0,65,0.00,,---,0.00,VWS V14.00,2013-01-16 07:34:00,
2013-01-16 01:40:00,24.6,14.9,29.26,NNE,28,0.0,0.0,66,0.00,,---,0.00,VWS V14.00,2013-01-16 07:40:00,
2013-01-16 01:43:00,24.2,14.9,29.26,NNE,28,0.0,0.0,67,0.00,,---,0.00,VWS V14.00,2013-01-16 07:43:00,
2013-01-16 01:49:00,24.2,14.9,29.26,NNE,28,0.0,0.0,67,0.00,,---,0.00,VWS V14.00,2013-01-16 07:49:00,
2013-01-16 01:55:00,24.2,14.9,29.29,NNE,28,0.0,0.0,67,0.00,,---,0.00,VWS V14.00,2013-01-16 07:55:00,
2013-01-16 01:58:00,24.2,14.9,29.29,NNE,28,0.0,0.0,67,0.00,,---,0.00,VWS V14.00,2013-01-16 07:58:00,
2013-01-16 02:01:00,24.2,14.9,29.29,NNE,28,0.0,0.0,67,0.00,,---,0.00,VWS V14.00,2013-01-16 08:01:00,
2013-01-16 02:04:00,24.2,14.9,29.29,NNE,28,0.0,0.0,67,0.00,,---,0.00,VWS V14.00,2013-01-16 08:04:00,
2013-01-16 02:07:00,24.2,14.9,29.29,NNE,28,0.0,0.0,67,0.00,,---,0.00,VWS V14.00,2013-01-16 08:07:00,
2013-01-16 02:13:00,24.2,14.9,29.29,NNE,28,0.0,0.0,67,0.00,,---,0.00,VWS V14.00,2013-01-16 08:13:00,
2013-01-16 02:19:00,24.2,14.9,29.29,NNE,28,0.0,0.0,67,0.00,,---,0.00,VWS V14.00,2013-01-16 08:19:00,
2013-01-16 02:22:00,23.5,13.9,29.29,NNE,28,0.0,0.0,66,0.00,,---,0.00,VWS V14.00,2013-01-16 08:22:00,
2013-01-16 02:25:00,23.5,13.9,29.29,NNE,28,0.0,0.0,66,0.00,,---,0.00,VWS V14.00,2013-01-16 08:25:00,
2013-01-16 02:28:00,23.5,13.9,29.26,NNE,28,0.0,0.0,66,0.00,,---,0.00,VWS V14.00,2013-01-16 08:28:00,
2013-01-16 02:34:00,23.5,13.9,29.26,North,3,0.0,0.0,66,0.00,,---,0.00,VWS V14.00,2013-01-16 08:34:00,
2013-01-16 02:40:00,23.7,15.0,29.26,North,3,0.0,0.0,69,0.00,,---,0.00,VWS V14.00,2013-01-16 08:40:00,
2013-01-16 02:43:00,23.7,15.0,29.26,North,3,0.0,0.0,69,0.00,,---,0.00,VWS V14.00,2013-01-16 08:43:00,
2013-01-16 02:49:00,23.5,14.9,29.26,North,4,0.0,0.0,69,0.00,,---,0.00,VWS V14.00,2013-01-16 08:49:00,
2013-01-16 02:52:00,23.5,14.9,29.26,North,3,0.0,0.0,69,0.00,,---,0.00,VWS V14.00,2013-01-16 08:52:00,
2013-01-16 02:55:00,23.5,14.9,29.26,North,3,0.0,0.0,69,0.00,,---,0.00,VWS V14.00,2013-01-16 08:55:00,
2013-01-16 03:01:00,23.9,15.5,29.26,North,3,0.0,0.0,70,0.00,,---,0.00,VWS V14.00,2013-01-16 09:01:00,
2013-01-16 03:04:00,23.9,15.5,29.26,North,4,0.0,0.0,70,0.00,,---,0.00,VWS V14.00,2013-01-16 09:04:00,
2013-01-16 03:10:00,23.9,15.5,29.29,North,3,0.0,0.0,70,0.00,,---,0.00,VWS V14.00,2013-01-16 09:10:00,
2013-01-16 03:13:00,23.9,15.5,29.29,North,4,0.0,0.0,70,0.00,,---,0.00,VWS V14.00,2013-01-16 09:13:00,
2013-01-16 03:19:00,23.9,15.5,29.29,North,3,0.0,0.0,70,0.00,,---,0.00,VWS V14.00,2013-01-16 09:19:00,
2013-01-16 03:25:00,23.9,15.5,29.26,North,3,0.0,0.0,70,0.00,,---,0.00,VWS V14.00,2013-01-16 09:25:00,
2013-01-16 03:31:00,23.9,15.5,29.26,North,3,0.0,0.0,70,0.00,,---,0.00,VWS V14.00,2013-01-16 09:31:00,
2013-01-16 03:34:00,23.9,15.5,29.26,North,3,0.0,0.0,70,0.00,,---,0.00,VWS V14.00,2013-01-16 09:34:00,
2013-01-16 03:40:00,23.9,15.5,29.26,North,3,0.0,0.0,70,0.00,,---,0.00,VWS V14.00,2013-01-16 09:40:00,
2013-01-16 03:46:00,23.9,15.5,29.29,North,3,0.0,0.0,70,0.00,,---,0.00,VWS V14.00,2013-01-16 09:46:00,
2013-01-16 03:49:00,23.9,15.5,29.29,North,3,0.0,0.0,70,0.00,,---,0.00,VWS V14.00,2013-01-16 09:49:00,
2013-01-16 03:55:00,23.9,15.5,29.26,North,3,0.0,0.0,70,0.00,,---,0.00,VWS V14.00,2013-01-16 09:55:00,
2013-01-16 03:58:00,23.9,15.5,29.26,North,3,0.0,0.0,70,0.00,,---,0.00,VWS V14.00,2013-01-16 09:58:00,
2013-01-16 04:01:00,23.9,15.5,29.26,North,3,0.0,0.0,70,0.00,,---,0.00,VWS V14.00,2013-01-16 10:01:00,
2013-01-16 04:04:00,23.9,15.5,29.26,North,3,0.0,0.0,70,0.00,,---,0.00,VWS V14.00,2013-01-16 10:04:00,
2013-01-16 04:10:00,23.9,15.5,29.26,North,3,0.0,0.0,70,0.00,,---,0.00,VWS V14.00,2013-01-16 10:10:00,
2013-01-16 04:13:00,23.9,15.5,29.26,NNE,21,0.0,0.0,70,0.00,,---,0.00,VWS V14.00,2013-01-16 10:13:00,
2013-01-16 04:19:00,23.9,15.5,29.26,NNE,21,0.0,0.0,70,0.00,,---,0.00,VWS V14.00,2013-01-16 10:19:00,
2013-01-16 04:20:00,23.9,15.5,29.26,NNE,21,0.0,0.0,70,0.00,,---,0.00,VWS V14.00,2013-01-16 10:20:00,
2013-01-16 04:26:00,23.9,15.5,29.26,NNE,21,0.0,0.0,70,0.00,,---,0.00,VWS V14.00,2013-01-16 10:26:00,
2013-01-16 04:29:00,23.9,15.5,29.26,NNE,21,0.0,0.0,70,0.00,,---,0.00,VWS V14.00,2013-01-16 10:29:00,
2013-01-16 04:32:00,23.7,16.3,29.26,NNE,21,0.0,0.0,73,0.00,,---,0.00,VWS V14.00,2013-01-16 10:32:00,
2013-01-16 04:38:00,23.7,16.3,29.26,NNE,21,0.0,3.1,73,0.00,,---,0.00,VWS V14.00,2013-01-16 10:38:00,
2013-01-16 04:41:00,23.7,16.3,29.29,NNE,21,0.0,3.1,73,0.00,,---,0.00,VWS V14.00,2013-01-16 10:41:00,
2013-01-16 04:47:00,23.3,16.0,29.29,NNE,21,0.0,3.1,73,0.00,,---,0.00,VWS V14.00,2013-01-16 10:47:00,
2013-01-16 04:49:00,23.3,16.0,29.29,NNE,21,0.0,3.1,73,0.00,,---,0.00,VWS V14.00,2013-01-16 10:49:00,
2013-01-16 04:53:00,23.3,16.0,29.29,NNE,21,0.0,0.0,73,0.00,,---,0.00,VWS V14.00,2013-01-16 10:53:00,
2013-01-16 04:56:00,23.3,16.0,29.29,NNE,21,0.0,0.0,73,0.00,,---,0.00,VWS V14.00,2013-01-16 10:56:00,
2013-01-16 04:59:00,23.3,16.0,29.29,NNE,21,0.0,0.0,73,0.00,,---,0.00,VWS V14.00,2013-01-16 10:59:00,
2013-01-16 05:02:00,23.3,16.0,29.29,NNE,21,0.0,0.0,73,0.00,,---,0.00,VWS V14.00,2013-01-16 11:02:00,
2013-01-16 05:08:00,23.3,16.0,29.29,NNE,21,0.0,0.0,73,0.00,,---,0.00,VWS V14.00,2013-01-16 11:08:00,
2013-01-16 05:11:00,23.3,16.0,29.26,NNE,21,0.0,0.0,73,0.00,,---,0.00,VWS V14.00,2013-01-16 11:11:00,
2013-01-16 05:14:00,22.8,15.8,29.26,NNE,21,0.0,0.0,74,0.00,,---,0.00,VWS V14.00,2013-01-16 11:14:00,
2013-01-16 05:17:00,22.8,15.8,29.26,NNE,21,0.0,0.0,74,0.00,,---,0.00,VWS V14.00,2013-01-16 11:17:00,
2013-01-16 05:20:00,22.8,15.8,29.26,WNW,282,0.0,0.0,74,0.00,,---,0.00,VWS V14.00,2013-01-16 11:20:00,
2013-01-16 05:23:00,22.8,15.8,29.26,South,169,0.0,0.0,74,0.00,,---,0.00,VWS V14.00,2013-01-16 11:23:00,
2013-01-16 05:26:00,22.8,15.8,29.29,South,169,0.0,0.0,74,0.00,,---,0.00,VWS V14.00,2013-01-16 11:26:00,
2013-01-16 05:29:00,22.8,15.8,29.29,South,169,0.0,0.0,74,0.00,,---,0.00,VWS V14.00,2013-01-16 11:29:00,
2013-01-16 05:32:00,22.8,15.8,29.29,South,169,0.0,0.0,74,0.00,,---,0.00,VWS V14.00,2013-01-16 11:32:00,
2013-01-16 05:34:00,22.8,15.8,29.29,South,169,0.0,0.0,74,0.00,,---,0.00,VWS V14.00,2013-01-16 11:34:00,
2013-01-16 05:41:00,22.8,15.8,29.29,South,171,0.0,0.0,74,0.00,,---,0.00,VWS V14.00,2013-01-16 11:41:00,
2013-01-16 05:44:00,22.8,15.8,29.29,South,171,0.0,0.0,74,0.00,,---,0.00,VWS V14.00,2013-01-16 11:44:00,
2013-01-16 05:49:00,22.8,15.8,29.29,South,171,0.0,0.0,74,0.00,,---,0.00,VWS V14.00,2013-01-16 11:49:00,
2013-01-16 05:50:00,22.8,15.8,29.29,South,171,0.0,0.0,74,0.00,,---,0.00,VWS V14.00,2013-01-16 11:50:00,
2013-01-16 05:56:00,22.8,15.8,29.29,South,171,0.0,0.0,74,0.00,,---,0.00,VWS V14.00,2013-01-16 11:56:00,
2013-01-16 05:59:00,22.8,15.8,29.29,South,171,0.0,0.0,74,0.00,,---,0.00,VWS V14.00,2013-01-16 11:59:00,
2013-01-16 06:02:00,22.8,15.8,29.29,South,171,0.0,0.0,74,0.00,,---,0.00,VWS V14.00,2013-01-16 12:02:00,
2013-01-16 06:04:00,22.4,15.7,29.29,South,171,0.0,0.0,75,0.00,,---,0.00,VWS V14.00,2013-01-16 12:04:00,
2013-01-16 06:05:00,22.4,15.7,29.29,South,171,0.0,0.0,75,0.00,,---,0.00,VWS V14.00,2013-01-16 12:05:00,
2013-01-16 06:11:00,22.4,15.4,29.26,South,171,0.0,0.0,74,0.00,,---,0.00,VWS V14.00,2013-01-16 12:11:00,
2013-01-16 06:17:00,22.4,15.4,29.26,South,171,0.0,0.0,74,0.00,,---,0.00,VWS V14.00,2013-01-16 12:17:00,
2013-01-16 06:19:00,22.4,15.4,29.26,South,171,0.0,0.0,74,0.00,,---,0.00,VWS V14.00,2013-01-16 12:19:00,
2013-01-16 06:20:00,22.4,15.4,29.26,South,171,0.0,0.0,74,0.00,,---,0.00,VWS V14.00,2013-01-16 12:20:00,
2013-01-16 06:23:00,22.4,15.4,29.26,South,171,0.0,0.0,74,0.00,,---,0.00,VWS V14.00,2013-01-16 12:23:00,
2013-01-16 06:26:00,22.4,15.4,29.26,South,171,0.0,0.0,74,0.00,,---,0.00,VWS V14.00,2013-01-16 12:26:00,
2013-01-16 06:29:00,22.4,15.4,29.26,South,171,0.0,0.0,74,0.00,,---,0.00,VWS V14.00,2013-01-16 12:29:00,
2013-01-16 06:32:00,22.4,15.4,29.26,South,171,0.0,0.0,74,0.00,,---,0.00,VWS V14.00,2013-01-16 12:32:00,
2013-01-16 06:34:00,22.4,15.4,29.26,South,171,0.0,0.0,74,0.00,,---,0.00,VWS V14.00,2013-01-16 12:34:00,
2013-01-16 06:35:00,22.4,15.4,29.26,South,171,0.0,0.0,74,0.00,,---,0.00,VWS V14.00,2013-01-16 12:35:00,
2013-01-16 06:41:00,22.3,15.2,29.26,South,171,0.0,0.0,74,0.00,,---,0.00,VWS V14.00,2013-01-16 12:41:00,
2013-01-16 06:44:00,22.3,15.2,29.26,South,171,0.0,0.0,74,0.00,,---,0.00,VWS V14.00,2013-01-16 12:44:00,
2013-01-16 06:47:00,22.1,15.4,29.26,South,171,0.0,0.0,75,0.00,,---,0.00,VWS V14.00,2013-01-16 12:47:00,
2013-01-16 06:49:00,22.1,15.4,29.26,South,171,0.0,0.0,75,0.00,,---,0.00,VWS V14.00,2013-01-16 12:49:00,
2013-01-16 06:50:00,22.1,15.4,29.26,South,171,0.0,0.0,75,0.00,,---,0.00,VWS V14.00,2013-01-16 12:50:00,
2013-01-16 06:56:00,22.1,15.4,29.26,South,171,0.0,0.0,75,0.00,,---,0.00,VWS V14.00,2013-01-16 12:56:00,
2013-01-16 06:59:00,22.1,15.4,29.26,South,171,0.0,0.0,75,0.00,,---,0.00,VWS V14.00,2013-01-16 12:59:00,
2013-01-16 07:04:00,22.1,15.4,29.26,South,171,0.0,0.0,75,0.00,,---,0.00,VWS V14.00,2013-01-16 13:04:00,
2013-01-16 07:08:00,22.1,15.4,29.26,South,171,0.0,0.0,75,0.00,,---,0.00,VWS V14.00,2013-01-16 13:08:00,
2013-01-16 07:14:00,22.1,15.4,29.26,South,171,0.0,0.0,75,0.00,,---,0.00,VWS V14.00,2013-01-16 13:14:00,
2013-01-16 07:17:00,22.1,16.0,29.26,South,171,0.0,0.0,77,0.00,,---,0.00,VWS V14.00,2013-01-16 13:17:00,
2013-01-16 07:19:00,22.1,15.7,29.26,South,171,0.0,0.0,76,0.00,,---,0.00,VWS V14.00,2013-01-16 13:19:00,
2013-01-16 07:23:00,22.1,15.7,29.26,South,171,0.0,0.0,76,0.00,,---,0.00,VWS V14.00,2013-01-16 13:23:00,
2013-01-16 07:26:00,22.1,15.7,29.26,South,171,0.0,0.0,76,0.00,,---,0.00,VWS V14.00,2013-01-16 13:26:00,
2013-01-16 07:29:00,21.5,15.5,29.26,South,171,0.0,0.0,77,0.00,,---,0.00,VWS V14.00,2013-01-16 13:29:00,
2013-01-16 07:32:00,21.5,15.5,29.26,South,171,0.0,0.0,77,0.00,,---,0.00,VWS V14.00,2013-01-16 13:32:00,
2013-01-16 07:34:00,21.5,15.5,29.26,South,171,0.0,0.0,77,0.00,,---,0.00,VWS V14.00,2013-01-16 13:34:00,
2013-01-16 07:38:00,21.5,15.5,29.29,South,171,0.0,0.0,77,0.00,,---,0.00,VWS V14.00,2013-01-16 13:38:00,
2013-01-16 07:41:00,21.5,15.5,29.29,South,171,0.0,0.0,77,0.00,,---,0.00,VWS V14.00,2013-01-16 13:41:00,
2013-01-16 07:44:00,21.5,15.5,29.29,South,171,0.0,0.0,77,0.00,,---,0.00,VWS V14.00,2013-01-16 13:44:00,
2013-01-16 07:49:00,21.5,15.5,29.29,South,171,0.0,0.0,77,0.00,,---,0.00,VWS V14.00,2013-01-16 13:49:00,
2013-01-16 07:50:00,21.4,15.0,29.29,South,171,0.0,0.0,76,0.00,,---,0.00,VWS V14.00,2013-01-16 13:50:00,
2013-01-16 07:56:00,21.4,15.0,29.29,South,171,0.0,0.0,76,0.00,,---,0.00,VWS V14.00,2013-01-16 13:56:00,
2013-01-16 08:02:00,21.4,15.0,29.29,South,171,0.0,0.0,76,0.00,,---,0.00,VWS V14.00,2013-01-16 14:02:00,
2013-01-16 08:04:00,21.4,15.0,29.29,South,171,0.0,0.0,76,0.00,,---,0.00,VWS V14.00,2013-01-16 14:04:00,
2013-01-16 08:05:00,21.4,15.0,29.29,South,171,0.0,0.0,76,0.00,,---,0.00,VWS V14.00,2013-01-16 14:05:00,
2013-01-16 08:08:00,21.4,15.0,29.29,South,171,0.0,0.0,76,0.00,,---,0.00,VWS V14.00,2013-01-16 14:08:00,
2013-01-16 08:14:00,21.4,15.0,29.29,South,171,0.0,0.0,76,0.00,,---,0.00,VWS V14.00,2013-01-16 14:14:00,
2013-01-16 08:19:00,21.4,15.0,29.29,South,171,0.0,0.0,76,0.00,,---,0.00,VWS V14.00,2013-01-16 14:19:00,
2013-01-16 08:20:00,21.4,15.0,29.29,South,171,0.0,0.0,76,0.00,,---,0.00,VWS V14.00,2013-01-16 14:20:00,
2013-01-16 08:23:00,21.4,15.0,29.29,South,171,0.0,0.0,76,0.00,,---,0.00,VWS V14.00,2013-01-16 14:23:00,
2013-01-16 08:26:00,21.4,15.0,29.29,South,171,0.0,0.0,76,0.00,,---,0.00,VWS V14.00,2013-01-16 14:26:00,
2013-01-16 08:29:00,21.4,15.0,29.29,South,171,0.0,0.0,76,0.00,,---,0.00,VWS V14.00,2013-01-16 14:29:00,
2013-01-16 08:32:00,21.4,15.0,29.29,South,171,0.0,0.0,76,0.00,,---,0.00,VWS V14.00,2013-01-16 14:32:00,
2013-01-16 08:35:00,21.4,15.0,29.29,South,171,0.0,0.0,76,0.00,,---,0.00,VWS V14.00,2013-01-16 14:35:00,
2013-01-16 08:38:00,21.4,15.0,29.29,South,171,0.0,0.0,76,0.00,,---,0.00,VWS V14.00,2013-01-16 14:38:00,
2013-01-16 08:44:00,21.4,15.0,29.32,South,171,0.0,0.0,76,0.00,,---,0.00,VWS V14.00,2013-01-16 14:44:00,
2013-01-16 08:47:00,21.4,15.0,29.32,South,171,0.0,0.0,76,0.00,,---,0.00,VWS V14.00,2013-01-16 14:47:00,
2013-01-16 08:49:00,21.4,15.0,29.32,South,171,0.0,0.0,76,0.00,,---,0.00,VWS V14.00,2013-01-16 14:49:00,
2013-01-16 08:50:00,21.4,15.0,29.32,South,171,0.0,0.0,76,0.00,,---,0.00,VWS V14.00,2013-01-16 14:50:00,
2013-01-16 08:56:00,26.6,20.7,29.32,NNW,332,0.0,3.6,78,0.00,,---,0.00,VWS V14.00,2013-01-16 14:56:00,
2013-01-16 08:59:00,26.6,20.7,29.32,NNW,332,0.0,3.6,78,0.00,,---,0.00,VWS V14.00,2013-01-16 14:59:00,
2013-01-16 09:02:00,26.9,20.7,29.32,NNW,332,0.0,3.6,77,0.00,,---,0.00,VWS V14.00,2013-01-16 15:02:00,
2013-01-16 09:05:00,26.6,20.0,29.32,NNW,332,0.0,0.0,76,0.00,,---,0.00,VWS V14.00,2013-01-16 15:05:00,
2013-01-16 09:08:00,26.6,20.0,29.32,NNW,342,0.0,0.0,76,0.00,,---,0.00,VWS V14.00,2013-01-16 15:08:00,
2013-01-16 09:11:00,26.6,20.0,29.32,NNW,342,0.0,0.0,76,0.00,,---,0.00,VWS V14.00,2013-01-16 15:11:00,
2013-01-16 09:17:00,26.6,20.0,29.32,West,259,0.0,0.0,76,0.00,,---,0.00,VWS V14.00,2013-01-16 15:17:00,
2013-01-16 09:19:00,26.6,20.0,29.32,West,259,0.0,0.0,76,0.00,,---,0.00,VWS V14.00,2013-01-16 15:19:00,
2013-01-16 09:20:00,26.6,20.0,29.32,West,259,0.0,0.0,76,0.00,,---,0.00,VWS V14.00,2013-01-16 15:20:00,
2013-01-16 09:23:00,26.6,20.0,29.32,West,259,0.0,0.0,76,0.00,,---,0.00,VWS V14.00,2013-01-16 15:23:00,
2013-01-16 09:26:00,26.6,20.0,29.32,West,259,0.0,0.0,76,0.00,,---,0.00,VWS V14.00,2013-01-16 15:26:00,
2013-01-16 09:29:00,26.6,20.0,29.32,North,353,0.0,0.0,76,0.00,,---,0.00,VWS V14.00,2013-01-16 15:29:00,
2013-01-16 09:33:00,26.6,20.0,29.32,NNW,342,0.0,0.0,76,0.00,,---,0.00,VWS V14.00,2013-01-16 15:33:00,
2013-01-16 09:34:00,29.1,20.9,29.32,NNW,342,0.0,0.0,71,0.00,,---,0.00,VWS V14.00,2013-01-16 15:34:00,
2013-01-16 09:36:00,29.1,20.9,29.32,NNW,342,0.0,0.0,71,0.00,,---,0.00,VWS V14.00,2013-01-16 15:36:00,
2013-01-16 09:39:00,29.1,20.9,29.32,NNW,342,0.0,0.0,71,0.00,,---,0.00,VWS V14.00,2013-01-16 15:39:00,
2013-01-16 09:45:00,29.6,20.7,29.32,NNW,335,0.0,0.0,69,0.00,,---,0.00,VWS V14.00,2013-01-16 15:45:00,
2013-01-16 09:48:00,29.6,20.7,29.32,NNW,341,0.0,0.0,69,0.00,,---,0.00,VWS V14.00,2013-01-16 15:48:00,
2013-01-16 09:51:00,29.6,20.7,29.32,West,271,0.0,0.0,69,0.00,,---,0.00,VWS V14.00,2013-01-16 15:51:00,
2013-01-16 09:54:00,30.2,20.6,29.32,West,271,0.0,0.0,67,0.00,,---,0.00,VWS V14.00,2013-01-16 15:54:00,
2013-01-16 09:57:00,30.2,20.6,29.29,West,271,0.0,0.0,67,0.00,,---,0.00,VWS V14.00,2013-01-16 15:57:00,
2013-01-16 10:00:00,30.2,20.6,29.29,West,271,0.0,0.0,67,0.00,,---,0.00,VWS V14.00,2013-01-16 16:00:00,
2013-01-16 10:04:00,30.2,20.6,29.29,West,271,0.0,0.0,67,0.00,,---,0.00,VWS V14.00,2013-01-16 16:04:00,
2013-01-16 10:06:00,30.2,20.6,29.29,West,271,0.0,0.0,67,0.00,,---,0.00,VWS V14.00,2013-01-16 16:06:00,
2013-01-16 10:12:00,30.2,20.6,29.29,West,272,0.0,0.0,67,0.00,,---,0.00,VWS V14.00,2013-01-16 16:12:00,
2013-01-16 10:15:00,30.2,20.6,29.29,West,272,0.0,0.0,67,0.00,,---,0.00,VWS V14.00,2013-01-16 16:15:00,
2013-01-16 10:18:00,30.2,20.6,29.29,West,272,0.0,0.0,67,0.00,,---,0.00,VWS V14.00,2013-01-16 16:18:00,
2013-01-16 10:21:00,31.6,19.7,29.29,West,272,0.0,0.0,61,0.00,,---,0.00,VWS V14.00,2013-01-16 16:21:00,
2013-01-16 10:24:00,31.6,19.7,29.29,West,272,2.2,2.2,61,0.00,,---,0.00,VWS V14.00,2013-01-16 16:24:00,
2013-01-16 10:27:00,32.0,19.7,29.29,West,272,0.0,2.2,60,0.00,,---,0.00,VWS V14.00,2013-01-16 16:27:00,
2013-01-16 10:30:00,32.0,19.7,29.29,West,272,0.0,2.2,60,0.00,,---,0.00,VWS V14.00,2013-01-16 16:30:00,
2013-01-16 10:34:00,32.0,19.7,29.29,SSW,197,2.7,2.7,60,0.00,,---,0.00,VWS V14.00,2013-01-16 16:34:00,
2013-01-16 10:39:00,32.0,19.7,29.29,ENE,72,0.0,2.7,60,0.00,,---,0.00,VWS V14.00,2013-01-16 16:39:00,
2013-01-16 10:42:00,32.0,19.7,29.29,East,92,0.0,2.7,60,0.00,,---,0.00,VWS V14.00,2013-01-16 16:42:00,
2013-01-16 10:45:00,32.9,19.7,29.29,SSE,151,0.0,2.7,58,0.00,,---,0.00,VWS V14.00,2013-01-16 16:45:00,
2013-01-16 10:48:00,32.9,19.7,29.29,SSW,208,0.0,2.7,58,0.00,,---,0.00,VWS V14.00,2013-01-16 16:48:00,
2013-01-16 10:49:00,32.9,19.7,29.29,SSW,208,0.0,2.7,58,0.00,,---,0.00,VWS V14.00,2013-01-16 16:49:00,
2013-01-16 10:54:00,32.9,19.7,29.29,SSW,208,0.0,0.0,58,0.00,,---,0.00,VWS V14.00,2013-01-16 16:54:00,
2013-01-16 10:57:00,32.9,19.7,29.29,West,277,0.0,3.1,58,0.00,,---,0.00,VWS V14.00,2013-01-16 16:57:00,
2013-01-16 11:00:00,32.9,19.7,29.29,West,266,0.0,3.1,58,0.00,,---,0.00,VWS V14.00,2013-01-16 17:00:00,
2013-01-16 11:03:00,32.9,19.7,29.29,West,266,0.0,3.1,58,0.00,,---,0.00,VWS V14.00,2013-01-16 17:03:00,
2013-01-16 11:09:00,34.3,19.9,29.29,West,267,0.0,0.0,55,0.00,,---,0.00,VWS V14.00,2013-01-16 17:09:00,
2013-01-16 11:12:00,34.3,19.9,29.29,West,267,0.0,0.0,55,0.00,,---,0.00,VWS V14.00,2013-01-16 17:12:00,
2013-01-16 11:15:00,34.3,19.9,29.29,West,271,0.0,0.0,55,0.00,,---,0.00,VWS V14.00,2013-01-16 17:15:00,
2013-01-16 11:18:00,34.5,19.1,29.29,West,271,0.0,0.0,53,0.00,,---,0.00,VWS V14.00,2013-01-16 17:18:00,
2013-01-16 11:24:00,34.5,19.1,29.29,West,271,0.0,0.0,53,0.00,,---,0.00,VWS V14.00,2013-01-16 17:24:00,
2013-01-16 11:27:00,35.0,19.2,29.26,West,271,0.0,0.0,52,0.00,,---,0.00,VWS V14.00,2013-01-16 17:27:00,
2013-01-16 11:30:00,35.0,19.2,29.26,West,271,0.0,0.0,52,0.00,,---,0.00,VWS V14.00,2013-01-16 17:30:00,
2013-01-16 11:33:00,35.0,19.2,29.26,West,266,0.0,0.0,52,0.00,,---,0.00,VWS V14.00,2013-01-16 17:33:00,
2013-01-16 11:36:00,35.4,19.1,29.26,West,266,0.0,0.0,51,0.00,,---,0.00,VWS V14.00,2013-01-16 17:36:00,
2013-01-16 11:39:00,35.4,19.1,29.26,West,266,0.0,0.0,51,0.00,,---,0.00,VWS V14.00,2013-01-16 17:39:00,
2013-01-16 11:42:00,35.4,19.1,29.26,West,266,0.0,0.0,51,0.00,,---,0.00,VWS V14.00,2013-01-16 17:42:00,
2013-01-16 11:45:00,35.4,19.1,29.26,South,189,0.0,0.0,51,0.00,,---,0.00,VWS V14.00,2013-01-16 17:45:00,
2013-01-16 11:49:00,35.4,19.1,29.26,South,189,0.0,0.0,51,0.00,,---,0.00,VWS V14.00,2013-01-16 17:49:00,
2013-01-16 11:54:00,35.4,19.1,29.26,North,11,0.0,0.0,51,0.00,,---,0.00,VWS V14.00,2013-01-16 17:54:00,
2013-01-16 11:57:00,35.4,19.1,29.26,North,6,0.0,0.0,51,0.00,,---,0.00,VWS V14.00,2013-01-16 17:57:00,
2013-01-16 12:00:00,35.4,19.1,29.26,North,357,0.0,0.0,51,0.00,,---,0.00,VWS V14.00,2013-01-16 18:00:00,
2013-01-16 12:03:00,35.4,19.1,29.26,North,357,0.0,0.0,51,0.00,,---,0.00,VWS V14.00,2013-01-16 18:03:00,
2013-01-16 12:06:00,35.4,19.1,29.26,West,280,0.0,0.0,51,0.00,,---,0.00,VWS V14.00,2013-01-16 18:06:00,
2013-01-16 12:12:00,37.4,19.5,29.23,West,274,0.0,0.0,48,0.00,,---,0.00,VWS V14.00,2013-01-16 18:12:00,
2013-01-16 12:15:00,37.4,19.5,29.23,WNW,298,0.0,0.0,48,0.00,,---,0.00,VWS V14.00,2013-01-16 18:15:00,
2013-01-16 12:18:00,38.3,20.3,29.23,WNW,298,0.0,0.0,48,0.00,,---,0.00,VWS V14.00,2013-01-16 18:18:00,
2013-01-16 12:19:00,38.3,20.3,29.23,WNW,299,0.0,0.0,48,0.00,,---,0.00,VWS V14.00,2013-01-16 18:19:00,
2013-01-16 12:24:00,38.3,20.3,29.23,WNW,299,0.0,0.0,48,0.00,,---,0.00,VWS V14.00,2013-01-16 18:24:00,
2013-01-16 12:27:00,38.3,20.3,29.23,South,183,0.0,0.0,48,0.00,,---,0.00,VWS V14.00,2013-01-16 18:27:00,
2013-01-16 12:30:00,38.3,20.3,29.23,South,183,0.0,0.0,48,0.00,,---,0.00,VWS V14.00,2013-01-16 18:30:00,
2013-01-16 12:33:00,38.3,20.3,29.23,South,183,0.0,0.0,48,0.00,,---,0.00,VWS V14.00,2013-01-16 18:33:00,
2013-01-16 12:34:00,38.3,20.3,29.23,South,184,0.0,0.0,48,0.00,,---,0.00,VWS V14.00,2013-01-16 18:34:00,
2013-01-16 12:42:00,39.0,19.0,29.23,South,186,0.0,0.0,44,0.00,,---,0.00,VWS V14.00,2013-01-16 18:42:00,
2013-01-16 12:45:00,39.0,19.0,29.23,South,186,0.0,0.0,44,0.00,,---,0.00,VWS V14.00,2013-01-16 18:45:00,
2013-01-16 12:48:00,39.0,19.0,29.23,South,186,0.0,0.0,44,0.00,,---,0.00,VWS V14.00,2013-01-16 18:48:00,
2013-01-16 12:51:00,39.9,19.8,29.23,South,186,0.0,0.0,44,0.00,,---,0.00,VWS V14.00,2013-01-16 18:51:00,
2013-01-16 12:54:00,39.9,19.8,29.23,South,186,0.0,0.0,44,0.00,,---,0.00,VWS V14.00,2013-01-16 18:54:00,
2013-01-16 12:57:00,40.3,19.6,29.21,South,186,0.0,0.0,43,0.00,,---,0.00,VWS V14.00,2013-01-16 18:57:00,
2013-01-16 13:00:00,40.4,19.7,29.21,South,186,0.0,0.0,43,0.00,,---,0.00,VWS V14.00,2013-01-16 19:00:00,
2013-01-16 13:03:00,40.4,19.7,29.21,South,186,0.0,0.0,43,0.00,,---,0.00,VWS V14.00,2013-01-16 19:03:00,
2013-01-16 13:04:00,40.4,19.7,29.21,South,186,0.0,0.0,43,0.00,,---,0.00,VWS V14.00,2013-01-16 19:04:00,
2013-01-16 13:09:00,40.4,19.7,29.21,NNW,348,0.0,0.0,43,0.00,,---,0.00,VWS V14.00,2013-01-16 19:09:00,
2013-01-16 13:12:00,40.4,19.7,29.21,NNW,337,0.0,0.0,43,0.00,,---,0.00,VWS V14.00,2013-01-16 19:12:00,
2013-01-16 13:15:00,41.0,19.7,29.21,NNW,344,0.0,0.0,42,0.00,,---,0.00,VWS V14.00,2013-01-16 19:15:00,
2013-01-16 13:18:00,41.0,19.7,29.21,NNW,343,0.0,0.0,42,0.00,,---,0.00,VWS V14.00,2013-01-16 19:18:00,
2013-01-16 13:19:00,41.0,19.7,29.21,NNW,343,0.0,0.0,42,0.00,,---,0.00,VWS V14.00,2013-01-16 19:19:00,
2013-01-16 13:21:00,41.0,19.7,29.21,NNE,15,0.0,0.0,42,0.00,,---,0.00,VWS V14.00,2013-01-16 19:21:00,
2013-01-16 13:24:00,41.7,20.3,29.21,NNE,15,0.0,0.0,42,0.00,,---,0.00,VWS V14.00,2013-01-16 19:24:00,
2013-01-16 13:27:00,41.7,20.3,29.21,NNE,15,0.0,0.0,42,0.00,,---,0.00,VWS V14.00,2013-01-16 19:27:00,
2013-01-16 13:30:00,41.7,20.3,29.21,NNE,15,0.0,0.0,42,0.00,,---,0.00,VWS V14.00,2013-01-16 19:30:00,
2013-01-16 13:34:00,42.1,20.1,29.21,NNE,15,0.0,0.0,41,0.00,,---,0.00,VWS V14.00,2013-01-16 19:34:00,
2013-01-16 13:39:00,42.4,21.0,29.21,NNE,15,0.0,0.0,42,0.00,,---,0.00,VWS V14.00,2013-01-16 19:39:00,
2013-01-16 13:45:00,42.6,20.6,29.21,NNE,15,0.0,0.0,41,0.00,,---,0.00,VWS V14.00,2013-01-16 19:45:00,
2013-01-16 13:48:00,42.6,20.6,29.21,NNE,15,0.0,0.0,41,0.00,,---,0.00,VWS V14.00,2013-01-16 19:48:00,
2013-01-16 13:49:00,42.6,20.6,29.21,NNE,15,0.0,0.0,41,0.00,,---,0.00,VWS V14.00,2013-01-16 19:49:00,
2013-01-16 13:54:00,43.1,21.0,29.21,SW,214,0.0,0.0,41,0.00,,---,0.00,VWS V14.00,2013-01-16 19:54:00,
2013-01-16 13:57:00,43.1,21.0,29.21,SW,214,0.0,0.0,41,0.00,,---,0.00,VWS V14.00,2013-01-16 19:57:00,
2013-01-16 14:00:00,43.1,21.0,29.21,SW,214,0.0,0.0,41,0.00,,---,0.00,VWS V14.00,2013-01-16 20:00:00,
2013-01-16 14:03:00,43.1,21.0,29.21,SW,214,0.0,0.0,41,0.00,,---,0.00,VWS V14.00,2013-01-16 20:03:00,
2013-01-16 14:04:00,43.1,21.0,29.21,SW,214,0.0,0.0,41,0.00,,---,0.00,VWS V14.00,2013-01-16 20:04:00,
2013-01-16 14:09:00,43.5,21.4,29.21,South,174,0.0,0.0,41,0.00,,---,0.00,VWS V14.00,2013-01-16 20:09:00,
2013-01-16 14:12:00,43.5,21.4,29.21,NNE,15,4.0,4.0,41,0.00,,---,0.00,VWS V14.00,2013-01-16 20:12:00,
2013-01-16 14:15:00,43.5,21.4,29.21,NNE,16,0.0,4.0,41,0.00,,---,0.00,VWS V14.00,2013-01-16 20:15:00,
2013-01-16 14:18:00,43.5,21.4,29.21,ESE,112,0.0,4.0,41,0.00,,---,0.00,VWS V14.00,2013-01-16 20:18:00,
2013-01-16 14:21:00,43.5,21.4,29.21,ESE,112,0.0,0.0,41,0.00,,---,0.00,VWS V14.00,2013-01-16 20:21:00,
2013-01-16 14:24:00,43.7,22.1,29.21,ESE,112,0.0,0.0,42,0.00,,---,0.00,VWS V14.00,2013-01-16 20:24:00,
2013-01-16 14:27:00,43.9,21.7,29.21,ESE,112,0.0,0.0,41,0.00,,---,0.00,VWS V14.00,2013-01-16 20:27:00,
2013-01-16 14:30:00,44.0,21.9,29.21,ESE,112,0.0,0.0,41,0.00,,---,0.00,VWS V14.00,2013-01-16 20:30:00,
2013-01-16 14:33:00,44.2,22.0,29.21,ESE,112,0.0,0.0,41,0.00,,---,0.00,VWS V14.00,2013-01-16 20:33:00,
2013-01-16 14:36:00,44.2,22.0,29.21,ESE,112,0.0,0.0,41,0.00,,---,0.00,VWS V14.00,2013-01-16 20:36:00,
2013-01-16 14:39:00,44.2,22.0,29.21,ESE,112,0.0,0.0,41,0.00,,---,0.00,VWS V14.00,2013-01-16 20:39:00,
2013-01-16 14:45:00,44.2,22.0,29.21,ESE,112,0.0,0.0,41,0.00,,---,0.00,VWS V14.00,2013-01-16 20:45:00,
2013-01-16 14:48:00,44.2,22.0,29.21,ESE,112,0.0,0.0,41,0.00,,---,0.00,VWS V14.00,2013-01-16 20:48:00,
2013-01-16 14:51:00,44.2,22.0,29.21,ESE,112,0.0,0.0,41,0.00,,---,0.00,VWS V14.00,2013-01-16 20:51:00,
2013-01-16 14:57:00,44.4,21.6,29.21,East,96,0.0,0.0,40,0.00,,---,0.00,VWS V14.00,2013-01-16 20:57:00,
2013-01-16 15:04:00,44.4,21.6,29.21,East,96,0.0,0.0,40,0.00,,---,0.00,VWS V14.00,2013-01-16 21:04:00,
2013-01-16 15:10:00,44.4,21.6,29.21,SSW,209,0.0,0.0,40,0.00,,---,0.00,VWS V14.00,2013-01-16 21:10:00,
2013-01-16 15:16:00,44.4,22.2,29.21,SSW,209,0.0,0.0,41,0.00,,---,0.00,VWS V14.00,2013-01-16 21:16:00,
2013-01-16 15:22:00,44.4,22.2,29.21,SSW,209,0.0,0.0,41,0.00,,---,0.00,VWS V14.00,2013-01-16 21:22:00,
2013-01-16 15:25:00,44.4,22.2,29.21,SSW,209,0.0,0.0,41,0.00,,---,0.00,VWS V14.00,2013-01-16 21:25:00,
2013-01-16 15:28:00,44.4,22.2,29.21,SSW,209,0.0,0.0,41,0.00,,---,0.00,VWS V14.00,2013-01-16 21:28:00,
2013-01-16 15:34:00,44.2,22.0,29.21,SSW,209,0.0,0.0,41,0.00,,---,0.00,VWS V14.00,2013-01-16 21:34:00,
2013-01-16 15:40:00,44.2,22.0,29.21,SSW,209,0.0,0.0,41,0.00,,---,0.00,VWS V14.00,2013-01-16 21:40:00,
2013-01-16 15:43:00,44.2,22.0,29.21,SSW,209,0.0,0.0,41,0.00,,---,0.00,VWS V14.00,2013-01-16 21:43:00,
2013-01-16 15:49:00,43.1,21.0,29.21,SSW,208,0.0,0.0,41,0.00,,---,0.00,VWS V14.00,2013-01-16 21:49:00,
2013-01-16 15:52:00,43.1,21.0,29.21,SSW,208,0.0,0.0,41,0.00,,---,0.00,VWS V14.00,2013-01-16 21:52:00,
2013-01-16 15:55:00,43.1,21.0,29.21,SSW,208,0.0,0.0,41,0.00,,---,0.00,VWS V14.00,2013-01-16 21:55:00,
2013-01-16 16:01:00,42.2,20.8,29.21,SSW,208,0.0,0.0,42,0.00,,---,0.00,VWS V14.00,2013-01-16 22:01:00,
2013-01-16 16:04:00,42.2,20.8,29.21,SSW,208,0.0,0.0,42,0.00,,---,0.00,VWS V14.00,2013-01-16 22:04:00,
2013-01-16 16:10:00,41.5,20.7,29.21,SSW,208,0.0,0.0,43,0.00,,---,0.00,VWS V14.00,2013-01-16 22:10:00,
2013-01-16 16:16:00,41.5,20.7,29.21,SSW,208,0.0,0.0,43,0.00,,---,0.00,VWS V14.00,2013-01-16 22:16:00,
2013-01-16 16:19:00,41.0,20.2,29.21,SSW,208,0.0,0.0,43,0.00,,---,0.00,VWS V14.00,2013-01-16 22:19:00,
2013-01-16 16:22:00,40.4,20.3,29.21,SSW,208,0.0,0.0,44,0.00,,---,0.00,VWS V14.00,2013-01-16 22:22:00,
2013-01-16 16:25:00,40.4,20.3,29.21,SSW,208,0.0,0.0,44,0.00,,---,0.00,VWS V14.00,2013-01-16 22:25:00,
2013-01-16 16:28:00,40.4,20.3,29.21,SSW,208,0.0,0.0,44,0.00,,---,0.00,VWS V14.00,2013-01-16 22:28:00,
2013-01-16 16:31:00,40.3,19.6,29.21,SSW,208,0.0,0.0,43,0.00,,---,0.00,VWS V14.00,2013-01-16 22:31:00,
2013-01-16 16:34:00,40.1,19.4,29.21,SSW,208,0.0,0.0,43,0.00,,---,0.00,VWS V14.00,2013-01-16 22:34:00,
2013-01-16 16:37:00,40.1,19.4,29.21,SSW,208,0.0,0.0,43,0.00,,---,0.00,VWS V14.00,2013-01-16 22:37:00,
2013-01-16 16:43:00,39.7,19.6,29.21,SW,219,0.0,0.0,44,0.00,,---,0.00,VWS V14.00,2013-01-16 22:43:00,
2013-01-16 16:46:00,39.7,19.6,29.21,SW,219,0.0,0.0,44,0.00,,---,0.00,VWS V14.00,2013-01-16 22:46:00,
2013-01-16 16:49:00,39.4,19.3,29.21,SW,225,2.7,2.7,44,0.00,,---,0.00,VWS V14.00,2013-01-16 22:49:00,
2013-01-16 16:52:00,39.4,19.3,29.21,SSW,200,0.0,2.7,44,0.00,,---,0.00,VWS V14.00,2013-01-16 22:52:00,
2013-01-16 16:55:00,39.4,19.3,29.21,SSW,200,0.0,2.7,44,0.00,,---,0.00,VWS V14.00,2013-01-16 22:55:00,
2013-01-16 17:01:00,38.6,19.1,29.21,SSW,200,0.0,2.7,45,0.00,,---,0.00,VWS V14.00,2013-01-16 23:01:00,
2013-01-16 17:04:00,38.5,19.5,29.21,SSW,200,0.0,2.7,46,0.00,,---,0.00,VWS V14.00,2013-01-16 23:04:00,
2013-01-16 17:07:00,38.5,19.5,29.21,South,183,0.0,0.0,46,0.00,,---,0.00,VWS V14.00,2013-01-16 23:07:00,
2013-01-16 17:10:00,38.5,19.5,29.23,SE,139,2.2,2.2,46,0.00,,---,0.00,VWS V14.00,2013-01-16 23:10:00,
2013-01-16 17:13:00,38.5,19.5,29.23,SSW,199,0.0,2.2,46,0.00,,---,0.00,VWS V14.00,2013-01-16 23:13:00,
2013-01-16 17:16:00,38.5,19.5,29.23,SSW,199,0.0,2.2,46,0.00,,---,0.00,VWS V14.00,2013-01-16 23:16:00,
2013-01-16 17:19:00,38.5,19.5,29.23,SSW,199,0.0,2.2,46,0.00,,---,0.00,VWS V14.00,2013-01-16 23:19:00,
2013-01-16 17:22:00,38.5,19.5,29.23,SSW,199,0.0,0.0,46,0.00,,---,0.00,VWS V14.00,2013-01-16 23:22:00,
2013-01-16 17:28:00,37.4,19.0,29.23,SSW,199,0.0,0.0,47,0.00,,---,0.00,VWS V14.00,2013-01-16 23:28:00,
2013-01-16 17:31:00,37.0,19.2,29.23,SSW,199,0.0,0.0,48,0.00,,---,0.00,VWS V14.00,2013-01-16 23:31:00,
2013-01-16 17:34:00,37.0,19.2,29.23,SSW,199,0.0,0.0,48,0.00,,---,0.00,VWS V14.00,2013-01-16 23:34:00,
2013-01-16 17:37:00,37.0,19.2,29.23,SSW,199,0.0,0.0,48,0.00,,---,0.00,VWS V14.00,2013-01-16 23:37:00,
2013-01-16 17:40:00,37.0,19.2,29.23,SSW,199,0.0,0.0,48,0.00,,---,0.00,VWS V14.00,2013-01-16 23:40:00,
2013-01-16 17:43:00,36.7,19.3,29.23,SSW,199,0.0,0.0,49,0.00,,---,0.00,VWS V14.00,2013-01-16 23:43:00,
2013-01-16 17:46:00,36.7,19.3,29.23,SSW,199,0.0,0.0,49,0.00,,---,0.00,VWS V14.00,2013-01-16 23:46:00,
2013-01-16 17:49:00,36.5,19.6,29.23,SSW,199,0.0,0.0,50,0.00,,---,0.00,VWS V14.00,2013-01-16 23:49:00,
2013-01-16 17:52:00,36.3,19.5,29.23,SSW,199,0.0,0.0,50,0.00,,---,0.00,VWS V14.00,2013-01-16 23:52:00,
2013-01-16 17:58:00,36.1,19.3,29.23,SSW,199,0.0,0.0,50,0.00,,---,0.00,VWS V14.00,2013-01-16 23:58:00,
2013-01-16 18:01:00,36.1,19.3,29.23,SSW,199,0.0,0.0,50,0.00,,---,0.00,VWS V14.00,2013-01-17 00:01:00,
2013-01-16 18:04:00,35.9,19.1,29.23,SSW,199,0.0,0.0,50,0.00,,---,0.00,VWS V14.00,2013-01-17 00:04:00,
2013-01-16 18:10:00,35.6,18.8,29.23,SSW,199,0.0,0.0,50,0.00,,---,0.00,VWS V14.00,2013-01-17 00:10:00,
2013-01-16 18:16:00,35.8,19.0,29.23,SSW,199,0.0,0.0,50,0.00,,---,0.00,VWS V14.00,2013-01-17 00:16:00,
2013-01-16 18:19:00,35.8,19.0,29.23,SSW,199,0.0,0.0,50,0.00,,---,0.00,VWS V14.00,2013-01-17 00:19:00,
2013-01-16 18:22:00,35.8,19.0,29.23,SSW,199,0.0,0.0,50,0.00,,---,0.00,VWS V14.00,2013-01-17 00:22:00,
2013-01-16 18:25:00,35.8,19.0,29.23,SSW,199,0.0,0.0,50,0.00,,---,0.00,VWS V14.00,2013-01-17 00:25:00,
2013-01-16 18:28:00,35.8,19.0,29.23,SSW,199,0.0,0.0,50,0.00,,---,0.00,VWS V14.00,2013-01-17 00:28:00,
2013-01-16 18:34:00,35.4,19.5,29.23,SSW,199,0.0,0.0,52,0.00,,---,0.00,VWS V14.00,2013-01-17 00:34:00,
2013-01-16 18:37:00,35.4,19.5,29.23,SSW,199,0.0,0.0,52,0.00,,---,0.00,VWS V14.00,2013-01-17 00:37:00,
2013-01-16 18:40:00,35.0,20.1,29.23,SSW,199,0.0,0.0,54,0.00,,---,0.00,VWS V14.00,2013-01-17 00:40:00,
2013-01-16 18:43:00,35.0,20.1,29.23,SSW,199,0.0,0.0,54,0.00,,---,0.00,VWS V14.00,2013-01-17 00:43:00,
2013-01-16 18:46:00,35.0,20.1,29.23,SSW,199,0.0,0.0,54,0.00,,---,0.00,VWS V14.00,2013-01-17 00:46:00,
2013-01-16 18:49:00,34.5,20.4,29.23,SSW,199,0.0,0.0,56,0.00,,---,0.00,VWS V14.00,2013-01-17 00:49:00,
2013-01-16 18:55:00,34.5,20.4,29.23,SSW,199,0.0,0.0,56,0.00,,---,0.00,VWS V14.00,2013-01-17 00:55:00,
2013-01-16 18:58:00,33.6,20.4,29.23,SSW,199,0.0,0.0,58,0.00,,---,0.00,VWS V14.00,2013-01-17 00:58:00,
2013-01-16 19:04:00,33.4,20.6,29.23,SSW,199,0.0,0.0,59,0.00,,---,0.00,VWS V14.00,2013-01-17 01:04:00,
2013-01-16 19:07:00,33.2,20.9,29.23,SSW,199,0.0,0.0,60,0.00,,---,0.00,VWS V14.00,2013-01-17 01:07:00,
2013-01-16 19:13:00,33.2,20.9,29.23,SSW,199,0.0,0.0,60,0.00,,---,0.00,VWS V14.00,2013-01-17 01:13:00,
2013-01-16 19:16:00,33.1,20.7,29.23,SSW,199,0.0,0.0,60,0.00,,---,0.00,VWS V14.00,2013-01-17 01:16:00,
2013-01-16 19:19:00,33.1,20.7,29.23,SSW,199,0.0,0.0,60,0.00,,---,0.00,VWS V14.00,2013-01-17 01:19:00,
2013-01-16 19:22:00,32.9,20.5,29.23,SSW,199,0.0,0.0,60,0.00,,---,0.00,VWS V14.00,2013-01-17 01:22:00,
2013-01-16 19:28:00,32.7,20.0,29.23,SSW,199,0.0,0.0,59,0.00,,---,0.00,VWS V14.00,2013-01-17 01:28:00,
2013-01-16 19:31:00,32.7,20.4,29.23,SSW,199,0.0,0.0,60,0.00,,---,0.00,VWS V14.00,2013-01-17 01:31:00,
2013-01-16 19:34:00,32.7,20.4,29.23,SSW,199,0.0,0.0,60,0.00,,---,0.00,VWS V14.00,2013-01-17 01:34:00,
2013-01-16 19:40:00,32.3,20.8,29.23,SSW,199,0.0,0.0,62,0.00,,---,0.00,VWS V14.00,2013-01-17 01:40:00,
2013-01-16 19:43:00,32.3,20.8,29.23,SSW,199,0.0,0.0,62,0.00,,---,0.00,VWS V14.00,2013-01-17 01:43:00,
2013-01-16 19:49:00,32.0,21.2,29.23,SSW,203,0.0,0.0,64,0.00,,---,0.00,VWS V14.00,2013-01-17 01:49:00,
2013-01-16 19:55:00,31.8,21.0,29.23,North,357,0.0,0.0,64,0.00,,---,0.00,VWS V14.00,2013-01-17 01:55:00,
2013-01-16 20:01:00,31.4,21.0,29.23,North,357,0.0,0.0,65,0.00,,---,0.00,VWS V14.00,2013-01-17 02:01:00,
2013-01-16 20:07:00,31.6,21.6,29.23,North,357,0.0,0.0,66,0.00,,---,0.00,VWS V14.00,2013-01-17 02:07:00,
2013-01-16 20:10:00,31.6,21.6,29.23,North,357,0.0,0.0,66,0.00,,---,0.00,VWS V14.00,2013-01-17 02:10:00,
2013-01-16 20:13:00,31.4,21.4,29.23,North,357,0.0,0.0,66,0.00,,---,0.00,VWS V14.00,2013-01-17 02:13:00,
2013-01-16 20:16:00,31.4,21.4,29.23,North,357,0.0,0.0,66,0.00,,---,0.00,VWS V14.00,2013-01-17 02:16:00,
2013-01-16 20:19:00,31.3,21.6,29.23,North,357,0.0,0.0,67,0.00,,---,0.00,VWS V14.00,2013-01-17 02:19:00,
2013-01-16 20:23:00,31.3,21.9,29.23,North,357,0.0,0.0,68,0.00,,---,0.00,VWS V14.00,2013-01-17 02:23:00,
2013-01-16 20:26:00,31.3,21.9,29.26,North,357,0.0,0.0,68,0.00,,---,0.00,VWS V14.00,2013-01-17 02:26:00,
2013-01-16 20:32:00,30.9,21.9,29.26,North,357,0.0,0.0,69,0.00,,---,0.00,VWS V14.00,2013-01-17 02:32:00,
2013-01-16 20:35:00,30.7,22.1,29.26,North,357,0.0,0.0,70,0.00,,---,0.00,VWS V14.00,2013-01-17 02:35:00,
2013-01-16 20:41:00,30.7,22.1,29.26,North,357,0.0,0.0,70,0.00,,---,0.00,VWS V14.00,2013-01-17 02:41:00,
2013-01-16 20:44:00,30.5,21.9,29.26,North,357,0.0,0.0,70,0.00,,---,0.00,VWS V14.00,2013-01-17 02:44:00,
2013-01-16 20:47:00,30.5,21.9,29.26,North,357,0.0,0.0,70,0.00,,---,0.00,VWS V14.00,2013-01-17 02:47:00,
2013-01-16 20:49:00,30.5,21.9,29.26,North,357,0.0,0.0,70,0.00,,---,0.00,VWS V14.00,2013-01-17 02:49:00,
2013-01-16 20:50:00,30.5,21.9,29.26,North,357,0.0,0.0,70,0.00,,---,0.00,VWS V14.00,2013-01-17 02:50:00,
2013-01-16 20:53:00,30.5,21.9,29.26,North,357,0.0,0.0,70,0.00,,---,0.00,VWS V14.00,2013-01-17 02:53:00,
2013-01-16 20:59:00,30.4,21.8,29.26,North,357,0.0,0.0,70,0.00,,---,0.00,VWS V14.00,2013-01-17 02:59:00,
2013-01-16 21:02:00,30.4,21.8,29.26,North,357,0.0,0.0,70,0.00,,---,0.00,VWS V14.00,2013-01-17 03:02:00,
2013-01-16 21:04:00,30.4,22.1,29.26,North,357,0.0,0.0,71,0.00,,---,0.00,VWS V14.00,2013-01-17 03:04:00,
2013-01-16 21:08:00,30.5,22.3,29.26,North,357,0.0,0.0,71,0.00,,---,0.00,VWS V14.00,2013-01-17 03:08:00,
2013-01-16 21:11:00,30.5,22.3,29.26,North,357,0.0,0.0,71,0.00,,---,0.00,VWS V14.00,2013-01-17 03:11:00,
2013-01-16 21:17:00,30.5,22.3,29.26,North,357,0.0,0.0,71,0.00,,---,0.00,VWS V14.00,2013-01-17 03:17:00,
2013-01-16 21:19:00,30.5,22.3,29.26,North,357,0.0,0.0,71,0.00,,---,0.00,VWS V14.00,2013-01-17 03:19:00,
2013-01-16 21:23:00,30.5,22.9,29.26,North,357,0.0,0.0,73,0.00,,---,0.00,VWS V14.00,2013-01-17 03:23:00,
2013-01-16 21:26:00,30.5,22.9,29.26,North,357,0.0,0.0,73,0.00,,---,0.00,VWS V14.00,2013-01-17 03:26:00,
2013-01-16 21:32:00,30.5,22.9,29.26,North,357,0.0,0.0,73,0.00,,---,0.00,VWS V14.00,2013-01-17 03:32:00,
2013-01-16 21:34:00,30.5,22.9,29.26,North,357,0.0,0.0,73,0.00,,---,0.00,VWS V14.00,2013-01-17 03:34:00,
2013-01-16 21:38:00,30.5,22.9,29.26,North,357,0.0,0.0,73,0.00,,---,0.00,VWS V14.00,2013-01-17 03:38:00,
2013-01-16 21:44:00,30.5,22.9,29.26,North,357,0.0,0.0,73,0.00,,---,0.00,VWS V14.00,2013-01-17 03:44:00,
2013-01-16 21:47:00,30.5,22.9,29.26,North,357,0.0,0.0,73,0.00,,---,0.00,VWS V14.00,2013-01-17 03:47:00,
2013-01-16 21:50:00,30.5,22.9,29.26,North,357,0.0,0.0,73,0.00,,---,0.00,VWS V14.00,2013-01-17 03:50:00,
2013-01-16 21:56:00,30.2,22.9,29.26,North,357,0.0,0.0,74,0.00,,---,0.00,VWS V14.00,2013-01-17 03:56:00,
2013-01-16 21:59:00,30.2,22.9,29.26,North,357,0.0,0.0,74,0.00,,---,0.00,VWS V14.00,2013-01-17 03:59:00,
2013-01-16 22:04:00,30.2,22.9,29.26,North,357,0.0,0.0,74,0.00,,---,0.00,VWS V14.00,2013-01-17 04:04:00,
2013-01-16 22:05:00,30.2,22.9,29.26,North,357,0.0,0.0,74,0.00,,---,0.00,VWS V14.00,2013-01-17 04:05:00,
2013-01-16 22:08:00,30.2,22.9,29.26,North,357,0.0,0.0,74,0.00,,---,0.00,VWS V14.00,2013-01-17 04:08:00,
2013-01-16 22:11:00,30.2,23.2,29.26,North,357,0.0,0.0,75,0.00,,---,0.00,VWS V14.00,2013-01-17 04:11:00,
2013-01-16 22:17:00,30.2,23.2,29.26,North,357,0.0,0.0,75,0.00,,---,0.00,VWS V14.00,2013-01-17 04:17:00,
2013-01-16 22:19:00,30.4,23.4,29.26,North,357,0.0,0.0,75,0.00,,---,0.00,VWS V14.00,2013-01-17 04:19:00,
2013-01-16 22:23:00,30.4,23.4,29.26,North,357,0.0,0.0,75,0.00,,---,0.00,VWS V14.00,2013-01-17 04:23:00,
2013-01-16 22:26:00,30.4,23.4,29.26,North,357,0.0,0.0,75,0.00,,---,0.00,VWS V14.00,2013-01-17 04:26:00,
2013-01-16 22:29:00,30.4,23.7,29.26,North,357,0.0,0.0,76,0.00,,---,0.00,VWS V14.00,2013-01-17 04:29:00,
2013-01-16 22:32:00,30.4,23.7,29.26,North,357,0.0,0.0,76,0.00,,---,0.00,VWS V14.00,2013-01-17 04:32:00,
2013-01-16 22:34:00,30.4,23.7,29.26,North,357,0.0,0.0,76,0.00,,---,0.00,VWS V14.00,2013-01-17 04:34:00,
2013-01-16 22:38:00,30.5,24.2,29.26,North,357,0.0,0.0,77,0.00,,---,0.00,VWS V14.00,2013-01-17 04:38:00,
2013-01-16 22:41:00,30.5,24.2,29.26,North,357,0.0,0.0,77,0.00,,---,0.00,VWS V14.00,2013-01-17 04:41:00,
2013-01-16 22:47:00,30.7,24.4,29.26,North,357,0.0,0.0,77,0.00,,---,0.00,VWS V14.00,2013-01-17 04:47:00,
2013-01-16 22:49:00,30.7,24.4,29.26,North,357,0.0,0.0,77,0.00,,---,0.00,VWS V14.00,2013-01-17 04:49:00,
2013-01-16 22:50:00,30.7,24.4,29.26,North,357,0.0,0.0,77,0.00,,---,0.00,VWS V14.00,2013-01-17 04:50:00,
2013-01-16 22:56:00,31.3,24.6,29.26,North,357,0.0,0.0,76,0.00,,---,0.00,VWS V14.00,2013-01-17 04:56:00,
2013-01-16 22:59:00,31.3,24.6,29.26,North,357,0.0,0.0,76,0.00,,---,0.00,VWS V14.00,2013-01-17 04:59:00,
2013-01-16 23:02:00,31.6,24.9,29.26,North,357,0.0,0.0,76,0.00,,---,0.00,VWS V14.00,2013-01-17 05:02:00,
2013-01-16 23:05:00,31.6,24.9,29.26,North,357,0.0,0.0,76,0.00,,---,0.00,VWS V14.00,2013-01-17 05:05:00,
2013-01-16 23:11:00,31.8,25.1,29.26,North,357,0.0,0.0,76,0.00,,---,0.00,VWS V14.00,2013-01-17 05:11:00,
2013-01-16 23:17:00,32.0,25.3,29.26,North,357,0.0,0.0,76,0.00,,---,0.00,VWS V14.00,2013-01-17 05:17:00,
2013-01-16 23:19:00,32.2,25.5,29.26,North,357,0.0,0.0,76,0.00,,---,0.00,VWS V14.00,2013-01-17 05:19:00,
2013-01-16 23:23:00,32.2,25.5,29.26,North,357,0.0,0.0,76,0.00,,---,0.00,VWS V14.00,2013-01-17 05:23:00,
2013-01-16 23:26:00,32.2,25.5,29.26,North,357,0.0,0.0,76,0.00,,---,0.00,VWS V14.00,2013-01-17 05:26:00,
2013-01-16 23:32:00,32.0,25.0,29.26,North,357,0.0,0.0,75,0.00,,---,0.00,VWS V14.00,2013-01-17 05:32:00,
2013-01-16 23:34:00,32.0,25.0,29.26,North,357,0.0,0.0,75,0.00,,---,0.00,VWS V14.00,2013-01-17 05:34:00,
2013-01-16 23:38:00,31.6,24.3,29.26,North,357,0.0,0.0,74,0.00,,---,0.00,VWS V14.00,2013-01-17 05:38:00,
2013-01-16 23:44:00,31.4,24.1,29.26,North,357,0.0,0.0,74,0.00,,---,0.00,VWS V14.00,2013-01-17 05:44:00,
2013-01-16 23:47:00,31.8,24.5,29.26,North,357,0.0,0.0,74,0.00,,---,0.00,VWS V14.00,2013-01-17 05:47:00,
2013-01-16 23:50:00,31.8,24.5,29.26,North,357,0.0,0.0,74,0.00,,---,0.00,VWS V14.00,2013-01-17 05:50:00,
2013-01-16 23:56:00,32.2,25.1,29.29,North,357,0.0,0.0,75,0.00,,---,0.00,VWS V14.00,2013-01-17 05:56:00,
2013-01-16 23:59:00,32.2,25.1,29.29,North,357,0.0,0.0,75,0.00,,---,0.00,VWS V14.00,2013-01-17 05:59:00,